Time;durP1;ratioP1;P1;durP2;ratioP2;P2;SDS_P1;SDS_P2;PMS_P1;PMS_P2;Temp;Humidity;BMP_temperature;BMP_pressure;BME280_temperature;BME280_humidity;BME280_pressure;Samples;Min_cycle;Max_cycle;Signal;HPM_P1;HPM_P2
2023/08/29 00:01:12;;;;;;;4.25;0.95;;;;;;;;;;5142231;27;20043;-73
2023/08/29 00:03:39;;;;;;;3.33;0.90;;;;;;;;;;5142203;27;20043;-73
2023/08/29 00:06:06;;;;;;;3.22;0.80;;;;;;;;;;5130115;27;20051;-73
2023/08/29 00:08:33;;;;;;;1.90;0.82;;;;;;;;;;5130305;27;20050;-74
2023/08/29 00:11:02;;;;;;;3.08;0.75;;;;;;;;;;5130210;27;20047;-73
2023/08/29 00:13:30;;;;;;;3.42;1.13;;;;;;;;;;5130141;27;20523;-73
2023/08/29 00:15:56;;;;;;;2.65;0.90;;;;;;;;;;5131433;27;20554;-73
2023/08/29 00:18:26;;;;;;;2.22;1.00;;;;;;;;;;5142414;27;20043;-73
2023/08/29 00:20:53;;;;;;;1.85;0.77;;;;;;;;;;5140716;27;20096;-73
2023/08/29 00:23:20;;;;;;;2.58;0.90;;;;;;;;;;5141816;27;20357;-73
2023/08/29 00:25:46;;;;;;;2.03;0.70;;;;;;;;;;5141795;27;20055;-73
2023/08/29 00:28:13;;;;;;;1.67;0.70;;;;;;;;;;5141899;27;20134;-73
2023/08/29 00:30:40;;;;;;;2.63;0.80;;;;;;;;;;5141624;27;20043;-73
2023/08/29 00:33:11;;;;;;;5.93;1.10;;;;;;;;;;5137985;27;20110;-73
2023/08/29 00:35:38;;;;;;;2.65;1.00;;;;;;;;;;5140605;27;20227;-73
2023/08/29 00:38:05;;;;;;;1.77;0.85;;;;;;;;;;5141552;27;20043;-73
2023/08/29 00:40:32;;;;;;;4.65;1.00;;;;;;;;;;5141814;27;20110;-73
2023/08/29 00:43:00;;;;;;;2.75;0.98;;;;;;;;;;5142006;27;20051;-73
2023/08/29 00:45:32;;;;;;;3.58;0.93;;;;;;;;;;5141829;27;20101;-73
2023/08/29 00:48:01;;;;;;;2.78;0.98;;;;;;;;;;5141701;27;20320;-73
2023/08/29 00:50:30;;;;;;;2.08;0.90;;;;;;;;;;5141307;27;20055;-73
2023/08/29 00:53:03;;;;;;;5.05;1.05;;;;;;;;;;5141328;27;20050;-73
2023/08/29 00:55:31;;;;;;;2.28;1.02;;;;;;;;;;5141656;27;20043;-73
2023/08/29 00:57:59;;;;;;;2.00;0.88;;;;;;;;;;5141846;27;20102;-73
2023/08/29 01:00:29;;;;;;;1.67;0.80;;;;;;;;;;5141167;27;20043;-73
2023/08/29 01:02:57;;;;;;;2.30;0.95;;;;;;;;;;5141868;27;20050;-73
2023/08/29 01:05:24;;;;;;;2.13;0.80;;;;;;;;;;5141183;27;20089;-73
2023/08/29 01:07:53;;;;;;;2.63;0.82;;;;;;;;;;5141136;27;20335;-73
2023/08/29 01:10:25;;;;;;;1.90;0.73;;;;;;;;;;5142318;27;20049;-73
2023/08/29 01:13:07;;;;;;;3.28;0.90;;;;;;;;;;5150510;27;20092;-73
2023/08/29 01:15:35;;;;;;;4.40;0.75;;;;;;;;;;5156441;27;20077;-73
2023/08/29 01:18:05;;;;;;;1.25;0.75;;;;;;;;;;5162136;27;20118;-74
2023/08/29 01:20:34;;;;;;;2.05;0.93;;;;;;;;;;5141139;27;20327;-73
2023/08/29 01:23:08;;;;;;;2.42;0.80;;;;;;;;;;5140703;27;20276;-73
2023/08/29 01:26:11;;;;;;;4.45;0.90;;;;;;;;;;5141016;27;20073;-73
2023/08/29 01:28:45;;;;;;;2.35;1.02;;;;;;;;;;5158972;27;20102;-73
2023/08/29 01:31:12;;;;;;;1.85;0.85;;;;;;;;;;5161737;27;20345;-73
2023/08/29 01:33:39;;;;;;;4.18;1.17;;;;;;;;;;5161984;27;20071;-73
2023/08/29 01:36:07;;;;;;;1.83;0.80;;;;;;;;;;5160733;27;20042;-73
2023/08/29 01:38:33;;;;;;;1.80;0.80;;;;;;;;;;5161763;27;20043;-73
2023/08/29 01:41:00;;;;;;;2.63;1.10;;;;;;;;;;5161526;27;20046;-73
2023/08/29 01:43:27;;;;;;;2.65;1.10;;;;;;;;;;5162730;27;20107;-73
2023/08/29 01:45:53;;;;;;;1.25;0.70;;;;;;;;;;5146197;27;20047;-73
2023/08/29 01:48:21;;;;;;;2.75;0.98;;;;;;;;;;5145027;27;20043;-73
2023/08/29 01:50:48;;;;;;;2.33;0.70;;;;;;;;;;5144790;27;20053;-73
2023/08/29 01:53:15;;;;;;;2.65;1.08;;;;;;;;;;5144637;27;20342;-74
2023/08/29 01:55:43;;;;;;;3.15;1.27;;;;;;;;;;5144755;27;20043;-73
2023/08/29 01:58:12;;;;;;;5.10;0.98;;;;;;;;;;5144795;27;20484;-73
2023/08/29 02:00:39;;;;;;;2.05;0.95;;;;;;;;;;5144858;27;20110;-73
2023/08/29 02:03:06;;;;;;;3.90;0.98;;;;;;;;;;5144920;27;20066;-73
2023/08/29 02:05:33;;;;;;;1.90;0.95;;;;;;;;;;5144606;27;20043;-73
2023/08/29 02:08:00;;;;;;;2.42;1.08;;;;;;;;;;5144275;27;20110;-73
2023/08/29 02:10:26;;;;;;;1.75;0.90;;;;;;;;;;5149170;27;20049;-73
2023/08/29 02:12:53;;;;;;;3.03;1.02;;;;;;;;;;5165602;27;20043;-73
2023/08/29 02:15:20;;;;;;;2.65;1.00;;;;;;;;;;5164870;27;20042;-73
2023/08/29 02:17:46;;;;;;;3.72;1.35;;;;;;;;;;5164875;27;20043;-73
2023/08/29 02:20:13;;;;;;;2.85;1.20;;;;;;;;;;5165032;27;20051;-73
2023/08/29 02:22:40;;;;;;;4.22;1.00;;;;;;;;;;5164032;27;20049;-73
2023/08/29 02:25:07;;;;;;;5.18;1.10;;;;;;;;;;5164911;27;20088;-73
2023/08/29 02:27:34;;;;;;;4.00;1.10;;;;;;;;;;5165300;27;20042;-73
2023/08/29 02:30:04;;;;;;;5.70;1.20;;;;;;;;;;5165322;27;20107;-73
2023/08/29 02:32:34;;;;;;;7.55;1.10;;;;;;;;;;5164983;27;20095;-73
2023/08/29 02:35:03;;;;;;;7.23;1.40;;;;;;;;;;5164778;27;20088;-73
2023/08/29 02:37:31;;;;;;;3.35;1.20;;;;;;;;;;5164725;27;20042;-73
2023/08/29 02:39:57;;;;;;;4.10;1.13;;;;;;;;;;5165040;27;20043;-75
2023/08/29 02:42:24;;;;;;;5.22;1.30;;;;;;;;;;5164784;27;20122;-74
2023/08/29 02:44:51;;;;;;;2.80;1.10;;;;;;;;;;5164769;27;20284;-73
2023/08/29 02:47:18;;;;;;;4.10;0.90;;;;;;;;;;5164767;27;20058;-73
2023/08/29 02:49:45;;;;;;;4.38;1.10;;;;;;;;;;5164773;27;20051;-73
2023/08/29 02:52:11;;;;;;;3.05;1.20;;;;;;;;;;5164323;27;20060;-73
2023/08/29 02:54:38;;;;;;;4.72;1.20;;;;;;;;;;5163380;27;20043;-73
2023/08/29 02:57:05;;;;;;;3.83;1.00;;;;;;;;;;5163942;27;20125;-73
2023/08/29 02:59:31;;;;;;;5.35;1.38;;;;;;;;;;5164782;27;20043;-73
2023/08/29 03:02:00;;;;;;;2.75;1.08;;;;;;;;;;5164201;27;20042;-73
2023/08/29 03:04:27;;;;;;;5.75;1.35;;;;;;;;;;5164298;27;20087;-73
2023/08/29 03:06:53;;;;;;;4.35;1.35;;;;;;;;;;5164149;27;20085;-73
2023/08/29 03:09:20;;;;;;;6.13;1.50;;;;;;;;;;5164205;27;20053;-73
2023/08/29 03:11:46;;;;;;;4.05;1.38;;;;;;;;;;5163860;27;20265;-74
2023/08/29 03:14:14;;;;;;;4.78;1.48;;;;;;;;;;5164226;27;20507;-74
2023/08/29 03:16:40;;;;;;;2.78;1.20;;;;;;;;;;5164208;27;20043;-74
2023/08/29 03:19:07;;;;;;;4.78;1.27;;;;;;;;;;5164260;27;20053;-73
2023/08/29 03:21:34;;;;;;;3.17;1.40;;;;;;;;;;5164017;27;20051;-74
2023/08/29 03:24:02;;;;;;;3.60;1.30;;;;;;;;;;5164023;27;20046;-73
2023/08/29 03:26:28;;;;;;;6.20;1.33;;;;;;;;;;5163775;27;20070;-73
2023/08/29 03:28:55;;;;;;;3.70;1.20;;;;;;;;;;5163847;27;20331;-73
2023/08/29 03:31:21;;;;;;;2.85;1.00;;;;;;;;;;5163485;27;20042;-73
2023/08/29 03:33:48;;;;;;;3.85;1.10;;;;;;;;;;5163348;27;20358;-73
2023/08/29 03:36:15;;;;;;;3.92;1.30;;;;;;;;;;5163830;27;20048;-73
2023/08/29 03:38:42;;;;;;;7.28;1.40;;;;;;;;;;5163336;27;20102;-73
2023/08/29 03:41:08;;;;;;;3.63;1.30;;;;;;;;;;5163655;27;20049;-73
2023/08/29 03:43:36;;;;;;;6.78;1.27;;;;;;;;;;5163393;27;20049;-73
2023/08/29 03:46:07;;;;;;;1.67;0.90;;;;;;;;;;5163411;27;20058;-73
2023/08/29 03:48:35;;;;;;;5.10;0.95;;;;;;;;;;5162263;27;20057;-74
2023/08/29 03:51:05;;;;;;;1.90;1.00;;;;;;;;;;5162154;27;20046;-73
2023/08/29 03:53:36;;;;;;;6.22;1.10;;;;;;;;;;5162429;27;20042;-73
2023/08/29 03:56:05;;;;;;;4.18;1.20;;;;;;;;;;5163579;27;20096;-73
2023/08/29 03:58:32;;;;;;;4.07;1.48;;;;;;;;;;5162957;27;20064;-73
2023/08/29 04:00:59;;;;;;;3.20;1.02;;;;;;;;;;5162101;27;20047;-73
2023/08/29 04:03:26;;;;;;;7.45;1.58;;;;;;;;;;5162157;27;20151;-73
2023/08/29 04:05:53;;;;;;;4.25;1.10;;;;;;;;;;5162907;27;20111;-73
2023/08/29 04:08:20;;;;;;;3.53;0.93;;;;;;;;;;5162616;27;20061;-73
2023/08/29 04:10:47;;;;;;;5.65;1.45;;;;;;;;;;5162893;27;20046;-73
2023/08/29 04:13:14;;;;;;;4.65;1.30;;;;;;;;;;5162826;27;20107;-73
2023/08/29 04:15:41;;;;;;;3.50;1.33;;;;;;;;;;5163066;27;20046;-73
2023/08/29 04:18:08;;;;;;;3.55;1.40;;;;;;;;;;5161829;27;20081;-76
2023/08/29 04:20:36;;;;;;;6.43;1.55;;;;;;;;;;5163170;27;20070;-75
2023/08/29 04:23:03;;;;;;;7.72;1.60;;;;;;;;;;5162174;27;20301;-75
2023/08/29 04:25:30;;;;;;;2.83;1.23;;;;;;;;;;5162599;27;20271;-75
2023/08/29 04:27:57;;;;;;;3.28;1.17;;;;;;;;;;5162880;27;20051;-76
2023/08/29 04:30:24;;;;;;;5.28;1.40;;;;;;;;;;5162934;27;20114;-76
2023/08/29 04:32:51;;;;;;;4.78;1.30;;;;;;;;;;5162561;27;20030;-75
2023/08/29 04:35:19;;;;;;;6.03;1.40;;;;;;;;;;5162830;27;20050;-75
2023/08/29 04:37:47;;;;;;;5.10;1.35;;;;;;;;;;5162245;27;20066;-75
2023/08/29 04:40:15;;;;;;;4.18;1.30;;;;;;;;;;5162405;27;20109;-75
2023/08/29 04:42:44;;;;;;;5.35;1.52;;;;;;;;;;5162252;27;20050;-75
2023/08/29 04:45:11;;;;;;;6.60;1.40;;;;;;;;;;5162594;27;20042;-75
2023/08/29 04:47:38;;;;;;;7.28;1.33;;;;;;;;;;5162318;27;20057;-76
2023/08/29 04:50:06;;;;;;;3.05;1.20;;;;;;;;;;5162284;27;20046;-75
2023/08/29 04:52:33;;;;;;;2.97;1.25;;;;;;;;;;5161864;27;20073;-75
2023/08/29 04:55:00;;;;;;;6.22;1.45;;;;;;;;;;5162304;27;20432;-75
2023/08/29 04:57:27;;;;;;;5.97;1.52;;;;;;;;;;5162084;27;20335;-74
2023/08/29 04:59:53;;;;;;;6.72;1.50;;;;;;;;;;5162308;27;20125;-75
2023/08/29 05:02:21;;;;;;;3.85;1.30;;;;;;;;;;5162150;27;20043;-75
2023/08/29 05:04:48;;;;;;;4.70;1.50;;;;;;;;;;5162123;27;20042;-75
2023/08/29 05:07:14;;;;;;;4.35;1.60;;;;;;;;;;5162316;27;20109;-75
2023/08/29 05:09:41;;;;;;;4.22;1.48;;;;;;;;;;5161699;27;20353;-75
2023/08/29 05:12:10;;;;;;;5.63;2.00;;;;;;;;;;5162023;27;20463;-75
2023/08/29 05:14:38;;;;;;;7.13;1.67;;;;;;;;;;5161905;27;20043;-75
2023/08/29 05:17:06;;;;;;;4.57;1.60;;;;;;;;;;5162048;27;20050;-75
2023/08/29 05:19:32;;;;;;;7.30;1.85;;;;;;;;;;5164690;27;20042;-75
2023/08/29 05:21:59;;;;;;;3.90;1.38;;;;;;;;;;5166366;27;20042;-75
2023/08/29 05:24:26;;;;;;;4.80;1.52;;;;;;;;;;5165882;27;20042;-75
2023/08/29 05:26:53;;;;;;;4.15;1.55;;;;;;;;;;5165286;27;20107;-75
2023/08/29 05:29:20;;;;;;;3.42;1.40;;;;;;;;;;5166114;27;20110;-75
2023/08/29 05:31:47;;;;;;;4.68;1.60;;;;;;;;;;5165907;27;20047;-75
2023/08/29 05:34:14;;;;;;;6.85;1.42;;;;;;;;;;5165708;27;20054;-76
2023/08/29 05:36:40;;;;;;;6.38;1.33;;;;;;;;;;5166276;27;20049;-75
2023/08/29 05:39:07;;;;;;;6.07;1.63;;;;;;;;;;5165410;27;20381;-75
2023/08/29 05:41:34;;;;;;;5.05;1.30;;;;;;;;;;5166350;27;20113;-75
2023/08/29 05:44:01;;;;;;;5.45;1.52;;;;;;;;;;5165796;27;20042;-75
2023/08/29 05:46:28;;;;;;;5.90;1.70;;;;;;;;;;5165831;27;20133;-76
2023/08/29 05:48:54;;;;;;;5.97;1.60;;;;;;;;;;5165793;27;20043;-75
2023/08/29 05:51:21;;;;;;;8.77;1.80;;;;;;;;;;5165865;27;20042;-76
2023/08/29 05:53:48;;;;;;;5.32;1.80;;;;;;;;;;5165163;27;20234;-75
2023/08/29 05:56:14;;;;;;;6.28;1.60;;;;;;;;;;5165799;27;20089;-75
2023/08/29 05:58:41;;;;;;;5.05;1.90;;;;;;;;;;5165782;27;20070;-75
2023/08/29 06:01:09;;;;;;;4.97;1.65;;;;;;;;;;5165773;27;20110;-75
2023/08/29 06:03:36;;;;;;;7.00;1.70;;;;;;;;;;5165507;27;20118;-75
2023/08/29 06:06:03;;;;;;;8.23;1.75;;;;;;;;;;5165391;27;20346;-75
2023/08/29 06:08:33;;;;;;;7.03;1.80;;;;;;;;;;5165045;27;20107;-75
2023/08/29 06:11:00;;;;;;;5.95;1.50;;;;;;;;;;5165376;27;20316;-75
2023/08/29 06:13:27;;;;;;;5.90;1.60;;;;;;;;;;5165143;27;20051;-75
2023/08/29 06:15:54;;;;;;;7.05;1.88;;;;;;;;;;5165221;27;20243;-75
2023/08/29 06:18:21;;;;;;;5.63;1.55;;;;;;;;;;5165504;27;20042;-76
2023/08/29 06:20:48;;;;;;;7.20;1.50;;;;;;;;;;5165362;27;20047;-76
2023/08/29 06:23:14;;;;;;;6.55;1.60;;;;;;;;;;5164191;27;20053;-76
2023/08/29 06:25:41;;;;;;;11.77;1.90;;;;;;;;;;5165108;27;20110;-75
2023/08/29 06:28:08;;;;;;;8.18;1.60;;;;;;;;;;5165150;27;20088;-75
2023/08/29 06:30:35;;;;;;;6.38;1.77;;;;;;;;;;5164817;27;20121;-75
2023/08/29 06:33:06;;;;;;;7.95;1.80;;;;;;;;;;5164489;27;20254;-75
2023/08/29 06:35:39;;;;;;;;;;;;;;;;;;5165563;27;20050;-75
2023/08/29 06:38:06;;;;;;;9.50;1.58;;;;;;;;;;5164548;27;19915;-75
2023/08/29 06:40:35;;;;;;;7.75;1.58;;;;;;;;;;5164820;27;20043;-75
2023/08/29 06:43:02;;;;;;;11.40;1.92;;;;;;;;;;5165001;27;20110;-75
2023/08/29 06:45:28;;;;;;;7.80;1.98;;;;;;;;;;5164471;27;20242;-75
2023/08/29 06:47:56;;;;;;;7.45;1.77;;;;;;;;;;5162372;27;20046;-75
2023/08/29 06:50:23;;;;;;;5.35;1.52;;;;;;;;;;5163493;27;20051;-74
2023/08/29 06:52:49;;;;;;;5.78;1.40;;;;;;;;;;5164377;27;20050;-75
2023/08/29 06:55:16;;;;;;;10.63;1.83;;;;;;;;;;5164714;27;20115;-75
2023/08/29 06:57:43;;;;;;;6.38;1.52;;;;;;;;;;5164367;27;20066;-75
2023/08/29 07:00:10;;;;;;;6.00;1.70;;;;;;;;;;5164294;27;20049;-73
2023/08/29 07:02:37;;;;;;;5.05;1.70;;;;;;;;;;5163992;27;20039;-73
2023/08/29 07:05:05;;;;;;;7.40;1.90;;;;;;;;;;5164009;27;20114;-80
2023/08/29 07:07:32;;;;;;;4.07;1.15;;;;;;;;;;5163801;27;20051;-73
2023/08/29 07:09:59;;;;;;;4.60;1.67;;;;;;;;;;5164252;27;20119;-73
2023/08/29 07:12:25;;;;;;;5.80;1.60;;;;;;;;;;5162363;27;20085;-74
2023/08/29 07:14:52;;;;;;;6.90;1.90;;;;;;;;;;5147573;27;20039;-73
2023/08/29 07:17:19;;;;;;;5.38;1.63;;;;;;;;;;5153484;27;20217;-74
2023/08/29 07:19:45;;;;;;;8.07;1.83;;;;;;;;;;5162193;27;20301;-72
2023/08/29 07:22:12;;;;;;;5.57;1.80;;;;;;;;;;5152108;27;20096;-73
2023/08/29 07:24:43;;;;;;;6.13;1.50;;;;;;;;;;5141821;27;20090;-73
2023/08/29 07:27:10;;;;;;;8.40;1.70;;;;;;;;;;5143047;27;20054;-73
2023/08/29 07:29:37;;;;;;;7.63;1.60;;;;;;;;;;5145077;27;20319;-73
2023/08/29 07:32:04;;;;;;;7.70;1.95;;;;;;;;;;5163770;27;20042;-73
2023/08/29 07:34:31;;;;;;;11.45;1.60;;;;;;;;;;5163383;27;20042;-73
2023/08/29 07:36:58;;;;;;;10.13;2.10;;;;;;;;;;5149235;27;20047;-73
2023/08/29 07:39:25;;;;;;;6.10;1.65;;;;;;;;;;5160600;27;20039;-73
2023/08/29 07:41:52;;;;;;;8.73;1.75;;;;;;;;;;5162064;27;20039;-73
2023/08/29 07:44:19;;;;;;;8.35;2.00;;;;;;;;;;5154192;27;20315;-73
2023/08/29 07:46:45;;;;;;;6.05;1.80;;;;;;;;;;5156277;27;20326;-73
2023/08/29 07:49:32;;;;;;;9.70;1.67;;;;;;;;;;5141523;27;20039;-72
2023/08/29 07:51:59;;;;;;;9.20;1.58;;;;;;;;;;5142373;27;20128;-73
2023/08/29 07:54:25;;;;;;;5.85;1.40;;;;;;;;;;5141642;27;20073;-73
2023/08/29 07:56:52;;;;;;;5.20;1.45;;;;;;;;;;5142132;27;20047;-73
2023/08/29 07:59:19;;;;;;;7.88;1.35;;;;;;;;;;5141966;27;20047;-73
2023/08/29 08:01:46;;;;;;;5.20;1.70;;;;;;;;;;5141119;27;20035;-77
2023/08/29 08:04:13;;;;;;;6.28;1.75;;;;;;;;;;5140677;27;20381;-73
2023/08/29 08:06:40;;;;;;;6.75;1.60;;;;;;;;;;5139916;27;20047;-73
2023/08/29 08:09:07;;;;;;;4.97;1.58;;;;;;;;;;5141431;27;20043;-73
2023/08/29 08:11:34;;;;;;;8.52;1.63;;;;;;;;;;5139537;27;20050;-74
2023/08/29 08:14:01;;;;;;;4.57;1.60;;;;;;;;;;5139484;27;20043;-74
2023/08/29 08:16:28;;;;;;;6.90;1.75;;;;;;;;;;5141683;27;20294;-73
2023/08/29 08:18:54;;;;;;;3.42;1.40;;;;;;;;;;5140200;27;20039;-73
2023/08/29 08:21:21;;;;;;;6.07;1.67;;;;;;;;;;5141575;27;20640;-73
2023/08/29 08:23:48;;;;;;;5.18;1.55;;;;;;;;;;5141172;27;20053;-74
2023/08/29 08:26:15;;;;;;;5.65;1.67;;;;;;;;;;5141010;27;20039;-73
2023/08/29 08:28:43;;;;;;;5.72;1.73;;;;;;;;;;5146621;27;20069;-73
2023/08/29 08:31:10;;;;;;;5.68;1.65;;;;;;;;;;5149763;27;20074;-74
2023/08/29 08:33:37;;;;;;;5.07;1.60;;;;;;;;;;5141319;27;20239;-74
2023/08/29 08:36:04;;;;;;;8.63;1.70;;;;;;;;;;5158961;27;20042;-73
2023/08/29 08:38:31;;;;;;;6.18;1.80;;;;;;;;;;5162236;27;20057;-73
2023/08/29 08:40:58;;;;;;;8.85;1.90;;;;;;;;;;5162139;27;20031;-73
2023/08/29 08:43:27;;;;;;;6.72;1.88;;;;;;;;;;5144456;27;20043;-73
2023/08/29 08:45:56;;;;;;;7.45;1.90;;;;;;;;;;5140657;27;20092;-73
2023/08/29 08:48:24;;;;;;;7.82;1.77;;;;;;;;;;5139508;27;20107;-74
2023/08/29 08:50:51;;;;;;;7.07;1.77;;;;;;;;;;5141371;27;20073;-73
2023/08/29 08:53:20;;;;;;;6.40;1.65;;;;;;;;;;5138986;27;20403;-73
2023/08/29 08:55:48;;;;;;;7.20;1.70;;;;;;;;;;5141990;27;20039;-73
2023/08/29 08:58:16;;;;;;;5.43;1.83;;;;;;;;;;5159453;27;20077;-73
2023/08/29 09:00:43;;;;;;;7.15;1.67;;;;;;;;;;5141217;27;20220;-73
2023/08/29 09:03:12;;;;;;;4.03;1.60;;;;;;;;;;5146676;27;20065;-73
2023/08/29 09:05:39;;;;;;;4.07;1.45;;;;;;;;;;5160497;27;20050;-73
2023/08/29 09:08:06;;;;;;;5.72;1.80;;;;;;;;;;5160114;27;20043;-73
2023/08/29 09:10:38;;;;;;;6.65;1.52;;;;;;;;;;5158823;27;20074;-73
2023/08/29 09:13:04;;;;;;;8.25;1.98;;;;;;;;;;5160211;27;20292;-73
2023/08/29 09:15:32;;;;;;;5.30;1.65;;;;;;;;;;5161672;27;20640;-73
2023/08/29 09:17:59;;;;;;;5.20;1.80;;;;;;;;;;5160631;27;20065;-74
2023/08/29 09:20:29;;;;;;;5.82;1.80;;;;;;;;;;5160848;27;20260;-74
2023/08/29 09:22:56;;;;;;;4.55;1.60;;;;;;;;;;5160764;27;20049;-72
2023/08/29 09:25:26;;;;;;;4.88;1.95;;;;;;;;;;5160515;27;20092;-73
2023/08/29 09:27:53;;;;;;;6.53;1.77;;;;;;;;;;5153605;27;20058;-73
2023/08/29 09:30:20;;;;;;;8.60;2.00;;;;;;;;;;5149034;27;20046;-74
2023/08/29 09:32:53;;;;;;;4.28;1.63;;;;;;;;;;5161521;27;20105;-73
2023/08/29 09:35:22;;;;;;;6.38;1.90;;;;;;;;;;5160104;27;20047;-73
2023/08/29 09:37:52;;;;;;;5.22;1.52;;;;;;;;;;5154452;27;20141;-73
2023/08/29 09:40:21;;;;;;;6.35;2.05;;;;;;;;;;5136180;27;20123;-73
2023/08/29 09:43:05;;;;;;;7.80;2.00;;;;;;;;;;5147378;27;20050;-73
2023/08/29 09:45:32;;;;;;;7.03;2.00;;;;;;;;;;5155541;27;20046;-73
2023/08/29 09:48:02;;;;;;;5.22;1.70;;;;;;;;;;5153246;27;20062;-73
2023/08/29 09:50:30;;;;;;;8.73;2.55;;;;;;;;;;5145211;27;20135;-73
2023/08/29 09:52:57;;;;;;;4.18;1.70;;;;;;;;;;5134376;27;20067;-73
2023/08/29 09:55:25;;;;;;;4.03;1.58;;;;;;;;;;5133529;27;20047;-73
2023/08/29 09:57:53;;;;;;;4.95;1.50;;;;;;;;;;5131271;27;20047;-73
2023/08/29 10:00:20;;;;;;;4.57;1.75;;;;;;;;;;5129407;27;20047;-73
2023/08/29 10:02:50;;;;;;;4.70;1.73;;;;;;;;;;5131141;27;20047;-76
2023/08/29 10:05:22;;;;;;;4.82;1.50;;;;;;;;;;5131785;27;20050;-73
2023/08/29 10:07:51;;;;;;;5.40;1.92;;;;;;;;;;5133333;27;20047;-73
2023/08/29 10:10:19;;;;;;;5.82;1.77;;;;;;;;;;5134886;27;20508;-73
2023/08/29 10:12:49;;;;;;;7.53;2.15;;;;;;;;;;5146995;27;20403;-73
2023/08/29 10:15:18;;;;;;;8.07;1.80;;;;;;;;;;5136713;27;20067;-73
2023/08/29 10:17:47;;;;;;;4.38;1.50;;;;;;;;;;5132584;27;20047;-72
2023/08/29 10:20:17;;;;;;;6.70;1.80;;;;;;;;;;5154104;27;20129;-73
2023/08/29 10:22:48;;;;;;;6.40;1.73;;;;;;;;;;5152217;27;20950;-72
2023/08/29 10:25:15;;;;;;;6.00;1.92;;;;;;;;;;5151378;27;20580;-72
2023/08/29 10:27:42;;;;;;;4.57;1.45;;;;;;;;;;5139757;27;20047;-73
2023/08/29 10:30:09;;;;;;;5.60;1.55;;;;;;;;;;5132103;27;20047;-72
2023/08/29 10:32:37;;;;;;;5.68;1.58;;;;;;;;;;5132410;27;20066;-73
2023/08/29 10:35:04;;;;;;;6.10;1.83;;;;;;;;;;5131751;27;20590;-73
2023/08/29 10:37:32;;;;;;;3.75;1.63;;;;;;;;;;5131408;27;20047;-81
2023/08/29 10:40:11;;;;;;;5.97;1.50;;;;;;;;;;5130618;27;20449;-73
2023/08/29 10:42:51;;;;;;;5.85;1.70;;;;;;;;;;5130096;27;20042;-73
2023/08/29 10:45:22;;;;;;;6.43;1.50;;;;;;;;;;5134718;27;20053;-73
2023/08/29 10:47:49;;;;;;;5.93;1.60;;;;;;;;;;5131868;27;20047;-73
2023/08/29 10:50:22;;;;;;;4.32;1.60;;;;;;;;;;5131796;27;20056;-73
2023/08/29 10:52:55;;;;;;;4.07;1.48;;;;;;;;;;5131060;27;20410;-73
2023/08/29 10:55:23;;;;;;;5.88;1.85;;;;;;;;;;5131208;27;20043;-74
2023/08/29 10:57:58;;;;;;;4.78;1.75;;;;;;;;;;5131657;27;20039;-73
2023/08/29 11:00:40;;;;;;;5.28;1.73;;;;;;;;;;5131663;27;20185;-72
2023/08/29 11:03:07;;;;;;;5.07;1.52;;;;;;;;;;5132966;27;20131;-72
2023/08/29 11:05:38;;;;;;;5.47;1.60;;;;;;;;;;5131286;27;20043;-72
2023/08/29 11:08:23;;;;;;;5.60;1.90;;;;;;;;;;5131263;27;20047;-72
2023/08/29 11:11:22;;;;;;;3.65;1.35;;;;;;;;;;5131767;27;20043;-72
2023/08/29 11:14:06;;;;;;;4.90;1.55;;;;;;;;;;5131049;27;20055;-72
2023/08/29 11:16:37;;;;;;;6.15;1.70;;;;;;;;;;5130261;27;20104;-71
2023/08/29 11:19:12;;;;;;;5.82;1.52;;;;;;;;;;5131087;27;20051;-73
2023/08/29 11:21:42;;;;;;;4.25;1.70;;;;;;;;;;5134150;27;20049;-74
2023/08/29 11:24:11;;;;;;;5.50;1.73;;;;;;;;;;5134381;27;20063;-72
2023/08/29 11:26:46;;;;;;;4.80;1.65;;;;;;;;;;5132557;27;20040;-72
2023/08/29 11:29:13;;;;;;;6.13;1.52;;;;;;;;;;5130418;27;20089;-73
2023/08/29 11:31:44;;;;;;;6.03;1.50;;;;;;;;;;5132392;27;20055;-73
2023/08/29 11:34:17;;;;;;;4.40;1.60;;;;;;;;;;5133591;27;20544;-73
2023/08/29 11:36:48;;;;;;;7.78;1.60;;;;;;;;;;5132591;27;20051;-73
2023/08/29 11:39:17;;;;;;;5.53;1.50;;;;;;;;;;5135483;27;20338;-73
2023/08/29 11:41:45;;;;;;;3.50;1.60;;;;;;;;;;5135709;27;20046;-78
2023/08/29 11:44:34;;;;;;;6.80;1.75;;;;;;;;;;5133512;27;20039;-72
2023/08/29 11:47:23;;;;;;;7.00;1.60;;;;;;;;;;5136642;27;20039;-72
2023/08/29 11:49:51;;;;;;;3.40;1.50;;;;;;;;;;5137494;27;20039;-72
2023/08/29 11:52:18;;;;;;;5.45;1.70;;;;;;;;;;5136031;27;20262;-72
2023/08/29 11:54:47;;;;;;;4.47;1.65;;;;;;;;;;5134322;27;20043;-72
2023/08/29 11:57:15;;;;;;;4.25;1.60;;;;;;;;;;5137466;27;20070;-73
2023/08/29 11:59:44;;;;;;;5.53;1.60;;;;;;;;;;5136036;27;20049;-75
2023/08/29 12:02:12;;;;;;;5.85;1.67;;;;;;;;;;5136445;27;20522;-73
2023/08/29 12:04:41;;;;;;;5.78;1.50;;;;;;;;;;5139273;27;20051;-73
2023/08/29 12:07:12;;;;;;;6.93;1.73;;;;;;;;;;5138562;27;20122;-72
2023/08/29 12:09:42;;;;;;;;;;;;;;;;;;5140117;27;20050;-74
2023/08/29 12:12:27;;;;;;;3.83;1.20;;;;;;;;;;5141852;27;20145;-74
2023/08/29 12:14:53;;;;;;;6.97;1.50;;;;;;;;;;5138700;27;20043;-74
2023/08/29 12:17:20;;;;;;;4.85;1.50;;;;;;;;;;5140881;27;20047;-74
2023/08/29 12:19:47;;;;;;;4.55;1.55;;;;;;;;;;5141646;27;20050;-74
2023/08/29 12:22:19;;;;;;;2.72;1.40;;;;;;;;;;5140235;27;20043;-74
2023/08/29 12:24:54;;;;;;;4.85;1.45;;;;;;;;;;5142961;27;20179;-74
2023/08/29 12:27:21;;;;;;;4.15;1.58;;;;;;;;;;5146071;27;20045;-74
2023/08/29 12:29:48;;;;;;;5.47;1.60;;;;;;;;;;5158592;27;20050;-74
2023/08/29 12:32:16;;;;;;;3.67;1.40;;;;;;;;;;5160223;27;20114;-74
2023/08/29 12:34:44;;;;;;;6.13;1.58;;;;;;;;;;5156600;27;20054;-75
2023/08/29 12:37:12;;;;;;;3.28;1.40;;;;;;;;;;5146021;27;20066;-75
2023/08/29 12:39:39;;;;;;;5.88;1.45;;;;;;;;;;5159341;27;20341;-75
2023/08/29 12:42:06;;;;;;;5.60;1.77;;;;;;;;;;5149014;27;20043;-75
2023/08/29 12:44:32;;;;;;;3.80;1.60;;;;;;;;;;5139942;27;20043;-76
2023/08/29 12:46:59;;;;;;;4.38;1.60;;;;;;;;;;5141013;27;20346;-74
2023/08/29 12:49:26;;;;;;;4.72;1.80;;;;;;;;;;5140183;27;20050;-73
2023/08/29 12:51:53;;;;;;;3.75;1.58;;;;;;;;;;5140358;27;20051;-73
2023/08/29 12:54:19;;;;;;;5.25;1.73;;;;;;;;;;5139827;27;20122;-73
2023/08/29 12:56:46;;;;;;;6.07;1.63;;;;;;;;;;5141195;27;20066;-73
2023/08/29 12:59:13;;;;;;;4.57;1.60;;;;;;;;;;5149000;27;20053;-73
2023/08/29 13:01:39;;;;;;;4.40;1.45;;;;;;;;;;5151718;27;20057;-72
2023/08/29 13:04:06;;;;;;;5.30;1.95;;;;;;;;;;5149546;27;20050;-73
2023/08/29 13:06:33;;;;;;;3.78;1.80;;;;;;;;;;5141144;27;20045;-72
2023/08/29 13:08:59;;;;;;;7.47;1.70;;;;;;;;;;5157276;27;20059;-73
2023/08/29 13:11:26;;;;;;;4.13;1.50;;;;;;;;;;5162348;27;20125;-73
2023/08/29 13:13:53;;;;;;;5.28;1.63;;;;;;;;;;5160005;27;20428;-73
2023/08/29 13:16:30;;;;;;;4.47;1.50;;;;;;;;;;5153774;27;20051;-73
2023/08/29 13:18:57;;;;;;;3.42;1.40;;;;;;;;;;5140986;27;20051;-73
2023/08/29 13:21:24;;;;;;;5.78;1.60;;;;;;;;;;5139953;28;20073;-73
2023/08/29 13:23:51;;;;;;;7.57;1.90;;;;;;;;;;5140009;27;20111;-73
2023/08/29 13:26:18;;;;;;;2.47;1.42;;;;;;;;;;5142954;27;20075;-73
2023/08/29 13:28:45;;;;;;;3.63;1.67;;;;;;;;;;5140579;27;20047;-73
2023/08/29 13:31:15;;;;;;;3.70;1.40;;;;;;;;;;5140130;27;20040;-73
2023/08/29 13:33:42;;;;;;;3.95;1.50;;;;;;;;;;5145886;27;20119;-74
2023/08/29 13:36:09;;;;;;;3.25;1.50;;;;;;;;;;5150563;27;20049;-73
2023/08/29 13:38:36;;;;;;;5.53;1.67;;;;;;;;;;5160830;27;20100;-73
2023/08/29 13:41:02;;;;;;;4.85;1.60;;;;;;;;;;5165085;27;20065;-73
2023/08/29 13:43:30;;;;;;;5.95;1.73;;;;;;;;;;5165605;27;20049;-73
2023/08/29 13:45:56;;;;;;;2.80;1.40;;;;;;;;;;5165299;27;20156;-73
2023/08/29 13:48:23;;;;;;;6.28;1.58;;;;;;;;;;5165513;27;20080;-73
2023/08/29 13:50:52;;;;;;;5.00;1.48;;;;;;;;;;5165411;27;20106;-73
2023/08/29 13:53:18;;;;;;;4.25;1.60;;;;;;;;;;5164794;27;20057;-73
2023/08/29 13:55:45;;;;;;;4.60;1.30;;;;;;;;;;5164974;27;20042;-73
2023/08/29 13:58:12;;;;;;;3.78;1.40;;;;;;;;;;5165201;27;20050;-73
2023/08/29 14:00:38;;;;;;;5.90;1.50;;;;;;;;;;5164890;27;20057;-74
2023/08/29 14:03:05;;;;;;;4.28;1.20;;;;;;;;;;5164934;27;20066;-73
2023/08/29 14:05:33;;;;;;;4.22;1.45;;;;;;;;;;5165044;27;20079;-73
2023/08/29 14:08:00;;;;;;;2.17;1.27;;;;;;;;;;5163036;27;20077;-73
2023/08/29 14:10:26;;;;;;;3.25;1.33;;;;;;;;;;5165106;27;20057;-73
2023/08/29 14:12:53;;;;;;;4.38;1.58;;;;;;;;;;5164508;27;20049;-73
2023/08/29 14:15:20;;;;;;;3.42;1.15;;;;;;;;;;5164813;27;20110;-73
2023/08/29 14:17:46;;;;;;;3.15;1.40;;;;;;;;;;5163434;27;20054;-73
2023/08/29 14:20:13;;;;;;;3.20;1.27;;;;;;;;;;5163833;27;20046;-73
2023/08/29 14:22:42;;;;;;;3.15;1.30;;;;;;;;;;5164692;27;20428;-75
2023/08/29 14:25:09;;;;;;;3.80;1.40;;;;;;;;;;5164714;27;20046;-75
2023/08/29 14:27:35;;;;;;;2.95;1.30;;;;;;;;;;5164540;27;20046;-76
2023/08/29 14:30:06;;;;;;;4.30;1.42;;;;;;;;;;5164796;27;20046;-76
2023/08/29 14:32:33;;;;;;;2.95;1.30;;;;;;;;;;5164840;27;20050;-78
2023/08/29 14:35:00;;;;;;;2.08;1.00;;;;;;;;;;5163292;27;20224;-76
2023/08/29 14:37:27;;;;;;;5.35;1.50;;;;;;;;;;5151560;27;20145;-74
2023/08/29 14:39:53;;;;;;;4.40;1.38;;;;;;;;;;5142580;27;20047;-74
2023/08/29 14:42:20;;;;;;;5.38;1.33;;;;;;;;;;5142697;27;20209;-73
2023/08/29 14:44:46;;;;;;;4.68;1.30;;;;;;;;;;5139888;27;20081;-74
2023/08/29 14:47:13;;;;;;;2.95;1.60;;;;;;;;;;5158206;27;20045;-73
2023/08/29 14:49:40;;;;;;;4.35;1.30;;;;;;;;;;5162072;27;20087;-73